Time,TemperatureF,DewpointF,PressureIn,WindDirection,WindDirectionDegrees,WindSpeedMPH,WindSpeedGustMPH,Humidity,HourlyPrecipIn,Conditions,Clouds,dailyrainin,SolarRadiationWatts/m^2,SoftwareType,DateUTC
2013-06-23 00:02:00,53.0,53.0,-100.00,West,260,4.0,9.0,99,0.00,,,0.71,0.000000,,2013-06-23 06:02:00,
2013-06-23 00:12:00,53.0,53.0,-100.00,West,260,4.0,9.0,99,0.00,,,0.71,0.000000,,2013-06-23 06:12:00,
2013-06-23 00:22:00,53.0,53.0,-100.00,West,260,4.0,9.0,99,0.00,,,0.71,0.000000,,2013-06-23 06:22:00,
2013-06-23 00:43:00,51.0,51.0,-100.00,West,261,3.0,8.0,99,0.00,,,0.71,0.000000,,2013-06-23 06:43:00,
2013-06-23 00:52:00,51.0,51.0,-100.00,West,261,3.0,8.0,99,0.00,,,0.71,0.000000,,2013-06-23 06:52:00,
2013-06-23 01:02:00,51.0,51.0,-100.00,West,261,3.0,8.0,99,0.00,,,0.71,0.000000,,2013-06-23 07:02:00,
2013-06-23 01:12:00,51.0,51.0,-100.00,West,261,3.0,8.0,99,0.00,,,0.71,0.000000,,2013-06-23 07:12:00,
2013-06-23 01:22:00,51.0,51.0,-100.00,West,261,3.0,8.0,99,0.00,,,0.71,0.000000,,2013-06-23 07:22:00,
2013-06-23 01:53:00,52.0,52.0,-100.00,West,264,3.0,9.0,99,0.00,,,0.71,0.000000,,2013-06-23 07:53:00,
2013-06-23 02:02:00,52.0,52.0,-100.00,West,264,3.0,9.0,99,0.00,,,0.71,0.000000,,2013-06-23 08:02:00,
2013-06-23 02:12:00,52.0,52.0,-100.00,West,264,3.0,9.0,99,0.00,,,0.71,0.000000,,2013-06-23 08:12:00,
2013-06-23 02:22:00,52.0,52.0,-100.00,West,264,3.0,9.0,99,0.00,,,0.71,0.000000,,2013-06-23 08:22:00,
2013-06-23 02:53:00,53.0,53.0,-100.00,WSW,249,4.0,9.0,99,0.00,,,0.71,0.000000,,2013-06-23 08:53:00,
2013-06-23 03:02:00,53.0,53.0,-100.00,WSW,249,4.0,9.0,99,0.00,,,0.71,0.000000,,2013-06-23 09:02:00,
2013-06-23 03:12:00,53.0,53.0,-100.00,WSW,249,4.0,9.0,99,0.00,,,0.71,0.000000,,2013-06-23 09:12:00,
2013-06-23 03:22:00,53.0,53.0,-100.00,WSW,249,4.0,9.0,99,0.00,,,0.71,0.000000,,2013-06-23 09:22:00,
2013-06-23 03:54:00,52.0,52.0,-100.00,WSW,251,4.0,9.0,99,0.00,,,0.71,0.000000,,2013-06-23 09:54:00,
2013-06-23 04:02:00,52.0,52.0,-100.00,WSW,251,4.0,9.0,99,0.00,,,0.71,0.000000,,2013-06-23 10:02:00,
2013-06-23 04:11:00,52.0,52.0,-100.00,WSW,251,4.0,9.0,99,0.00,,,0.71,0.000000,,2013-06-23 10:11:00,
2013-06-23 04:22:00,52.0,52.0,-100.00,WSW,251,4.0,9.0,99,0.00,,,0.71,0.000000,,2013-06-23 10:22:00,
2013-06-23 04:53:00,52.0,52.0,-100.00,West,264,5.0,11.0,99,0.00,,,0.71,0.000000,,2013-06-23 10:53:00,
2013-06-23 05:01:00,52.0,52.0,-100.00,West,264,5.0,11.0,99,0.00,,,0.71,0.000000,,2013-06-23 11:01:00,
2013-06-23 05:11:00,52.0,52.0,-100.00,West,264,5.0,11.0,99,0.00,,,0.71,0.000000,,2013-06-23 11:11:00,
2013-06-23 05:22:00,52.0,52.0,-100.00,West,264,5.0,11.0,99,0.00,,,0.71,0.000000,,2013-06-23 11:22:00,
2013-06-23 05:53:00,52.0,51.0,-100.00,WSW,258,3.0,11.0,98,0.00,,,0.71,1.000000,,2013-06-23 11:53:00,
2013-06-23 06:01:00,52.0,51.0,-100.00,WSW,258,3.0,11.0,98,0.00,,,0.71,1.000000,,2013-06-23 12:01:00,
2013-06-23 06:12:00,52.0,51.0,-100.00,WSW,258,3.0,11.0,98,0.00,,,0.71,1.000000,,2013-06-23 12:12:00,
2013-06-23 06:22:00,52.0,51.0,-100.00,WSW,258,3.0,11.0,98,0.00,,,0.71,1.000000,,2013-06-23 12:22:00,
2013-06-23 06:53:00,52.0,51.0,-100.00,WSW,239,3.0,7.0,98,0.00,,,0.71,47.000000,,2013-06-23 12:53:00,
2013-06-23 07:02:00,52.0,51.0,-100.00,WSW,239,3.0,7.0,98,0.00,,,0.71,47.000000,,2013-06-23 13:02:00,
2013-06-23 07:11:00,52.0,51.0,-100.00,WSW,239,3.0,7.0,98,0.00,,,0.71,47.000000,,2013-06-23 13:11:00,
2013-06-23 07:23:00,52.0,51.0,-100.00,WSW,239,3.0,7.0,98,0.00,,,0.71,47.000000,,2013-06-23 13:23:00,
2013-06-23 07:54:00,54.0,52.0,-100.00,WSW,244,5.0,12.0,93,0.00,,,0.71,101.000000,,2013-06-23 13:54:00,
2013-06-23 08:04:00,54.0,52.0,-100.00,WSW,244,5.0,12.0,93,0.00,,,0.71,101.000000,,2013-06-23 14:04:00,
2013-06-23 08:11:00,54.0,52.0,-100.00,WSW,244,5.0,12.0,93,0.00,,,0.71,101.000000,,2013-06-23 14:11:00,
2013-06-23 08:22:00,54.0,52.0,-100.00,WSW,244,5.0,12.0,93,0.00,,,0.71,101.000000,,2013-06-23 14:22:00,
2013-06-23 08:52:00,61.0,55.0,-100.00,WSW,239,6.0,11.0,80,0.00,,,0.71,456.000000,,2013-06-23 14:52:00,
2013-06-23 09:05:00,61.0,55.0,-100.00,WSW,239,6.0,11.0,80,0.00,,,0.71,456.000000,,2013-06-23 15:05:00,
2013-06-23 09:11:00,61.0,55.0,-100.00,WSW,239,6.0,11.0,80,0.00,,,0.71,456.000000,,2013-06-23 15:11:00,
2013-06-23 09:22:00,61.0,55.0,-100.00,WSW,239,6.0,11.0,80,0.00,,,0.71,456.000000,,2013-06-23 15:22:00,
2013-06-23 10:12:00,68.0,56.0,-100.00,WSW,246,5.0,13.0,66,0.00,,,0.71,640.000000,,2013-06-23 16:12:00,
2013-06-23 10:22:00,68.0,56.0,-100.00,WSW,246,5.0,13.0,66,0.00,,,0.71,640.000000,,2013-06-23 16:22:00,
2013-06-23 10:53:00,70.0,55.0,-100.00,WSW,258,5.0,15.0,59,0.00,,,0.71,840.000000,,2013-06-23 16:53:00,
2013-06-23 11:03:00,70.0,55.0,-100.00,WSW,258,5.0,15.0,59,0.00,,,0.71,840.000000,,2013-06-23 17:03:00,
2013-06-23 11:12:00,70.0,55.0,-100.00,WSW,258,5.0,15.0,59,0.00,,,0.71,840.000000,,2013-06-23 17:12:00,
2013-06-23 11:22:00,70.0,55.0,-100.00,WSW,258,5.0,15.0,59,0.00,,,0.71,840.000000,,2013-06-23 17:22:00,
2013-06-23 11:53:00,72.0,52.0,-100.00,WSW,254,5.0,13.0,50,0.00,,,0.71,977.000000,,2013-06-23 17:53:00,
2013-06-23 12:01:00,72.0,52.0,-100.00,WSW,254,5.0,13.0,50,0.00,,,0.71,977.000000,,2013-06-23 18:01:00,
2013-06-23 12:11:00,72.0,52.0,-100.00,WSW,254,5.0,13.0,50,0.00,,,0.71,977.000000,,2013-06-23 18:11:00,
2013-06-23 12:22:00,72.0,52.0,-100.00,WSW,254,5.0,13.0,50,0.00,,,0.71,977.000000,,2013-06-23 18:22:00,
2013-06-23 12:53:00,74.0,51.0,-100.00,West,259,5.0,13.0,45,0.00,,,0.71,1076.000000,,2013-06-23 18:53:00,
2013-06-23 13:01:00,74.0,51.0,-100.00,West,259,5.0,13.0,45,0.00,,,0.71,1076.000000,,2013-06-23 19:01:00,
2013-06-23 13:11:00,74.0,51.0,-100.00,West,259,5.0,13.0,45,0.00,,,0.71,1076.000000,,2013-06-23 19:11:00,
2013-06-23 13:21:00,74.0,51.0,-100.00,West,259,5.0,13.0,45,0.00,,,0.71,1076.000000,,2013-06-23 19:21:00,
2013-06-23 13:24:00,77.0,52.0,-100.00,WSW,247,5.0,16.0,42,0.00,,,0.71,1105.000000,,2013-06-23 19:24:00,
2013-06-23 13:53:00,77.0,52.0,-100.00,WSW,247,5.0,16.0,42,0.00,,,0.71,1105.000000,,2013-06-23 19:53:00,
2013-06-23 14:02:00,77.0,52.0,-100.00,WSW,247,5.0,16.0,42,0.00,,,0.71,1105.000000,,2013-06-23 20:02:00,
2013-06-23 14:12:00,77.0,52.0,-100.00,WSW,247,5.0,16.0,42,0.00,,,0.71,1105.000000,,2013-06-23 20:12:00,
2013-06-23 14:42:00,78.0,52.0,-100.00,West,259,6.0,17.0,40,0.00,,,0.71,971.000000,,2013-06-23 20:42:00,
2013-06-23 14:53:00,78.0,52.0,-100.00,West,259,6.0,17.0,40,0.00,,,0.71,971.000000,,2013-06-23 20:53:00,
2013-06-23 15:01:00,78.0,52.0,-100.00,West,259,6.0,17.0,40,0.00,,,0.71,971.000000,,2013-06-23 21:01:00,
2013-06-23 15:11:00,78.0,52.0,-100.00,West,259,6.0,17.0,40,0.00,,,0.71,971.000000,,2013-06-23 21:11:00,
2013-06-23 15:22:00,78.0,52.0,-100.00,West,259,6.0,17.0,40,0.00,,,0.71,971.000000,,2013-06-23 21:22:00,
2013-06-23 15:52:00,78.0,51.0,-100.00,WSW,250,8.0,19.0,39,0.00,,,0.71,1012.000000,,2013-06-23 21:52:00,
2013-06-23 16:01:00,78.0,51.0,-100.00,WSW,250,8.0,19.0,39,0.00,,,0.71,1012.000000,,2013-06-23 22:01:00,
2013-06-23 16:11:00,78.0,51.0,-100.00,WSW,250,8.0,19.0,39,0.00,,,0.71,1012.000000,,2013-06-23 22:11:00,
2013-06-23 16:22:00,78.0,51.0,-100.00,WSW,250,8.0,19.0,39,0.00,,,0.71,1012.000000,,2013-06-23 22:22:00,
2013-06-23 16:53:00,78.0,49.0,-100.00,WSW,250,7.0,17.0,36,0.00,,,0.70,886.000000,,2013-06-23 22:53:00,
2013-06-23 17:01:00,78.0,49.0,-100.00,WSW,250,7.0,17.0,36,0.00,,,0.70,886.000000,,2013-06-23 23:01:00,
2013-06-23 17:11:00,78.0,49.0,-100.00,WSW,250,7.0,17.0,36,0.00,,,0.70,886.000000,,2013-06-23 23:11:00,
2013-06-23 17:22:00,78.0,49.0,-100.00,WSW,250,7.0,17.0,36,0.00,,,0.70,886.000000,,2013-06-23 23:22:00,
2013-06-23 17:52:00,77.0,46.0,-100.00,SSW,199,7.0,19.0,34,0.00,,,0.53,538.000000,,2013-06-23 23:52:00,
2013-06-23 18:01:00,77.0,46.0,-100.00,SSW,199,7.0,19.0,34,0.00,,,0.53,538.000000,,2013-06-24 00:01:00,
2013-06-23 18:11:00,77.0,46.0,-100.00,SSW,199,7.0,19.0,34,0.00,,,0.53,538.000000,,2013-06-24 00:11:00,
2013-06-23 18:22:00,77.0,46.0,-100.00,SSW,199,7.0,19.0,34,0.00,,,0.53,538.000000,,2013-06-24 00:22:00,
2013-06-23 18:52:00,77.0,45.0,-100.00,West,260,5.0,14.0,32,0.00,,,-99.99,479.000000,,2013-06-24 00:52:00,
2013-06-23 19:01:00,77.0,45.0,-100.00,West,260,5.0,14.0,32,0.00,,,-99.99,479.000000,,2013-06-24 01:01:00,
2013-06-23 19:11:00,77.0,45.0,-100.00,West,260,5.0,14.0,32,0.00,,,-99.99,479.000000,,2013-06-24 01:11:00,
2013-06-23 19:22:00,77.0,45.0,-100.00,West,260,5.0,14.0,32,0.00,,,-99.99,479.000000,,2013-06-24 01:22:00,
2013-06-23 19:53:00,75.0,48.0,-100.00,WSW,257,2.0,12.0,38,0.00,,,0.01,40.000000,,2013-06-24 01:53:00,
2013-06-23 20:02:00,75.0,48.0,-100.00,WSW,257,2.0,12.0,38,0.00,,,0.01,40.000000,,2013-06-24 02:02:00,
2013-06-23 20:11:00,75.0,48.0,-100.00,WSW,257,2.0,12.0,38,0.00,,,0.01,40.000000,,2013-06-24 02:11:00,
2013-06-23 20:22:00,75.0,48.0,-100.00,WSW,257,2.0,12.0,38,0.00,,,0.01,40.000000,,2013-06-24 02:22:00,
2013-06-23 20:42:00,66.0,50.0,-100.00,West,271,1.0,6.0,57,0.00,,,0.00,58.000000,,2013-06-24 02:42:00,
2013-06-23 20:53:00,66.0,50.0,-100.00,West,271,1.0,6.0,57,0.00,,,0.00,58.000000,,2013-06-24 02:53:00,
2013-06-23 21:01:00,66.0,50.0,-100.00,West,271,1.0,6.0,57,0.00,,,0.00,58.000000,,2013-06-24 03:01:00,
2013-06-23 21:11:00,66.0,50.0,-100.00,West,271,1.0,6.0,57,0.00,,,0.00,58.000000,,2013-06-24 03:11:00,
2013-06-23 21:22:00,66.0,50.0,-100.00,West,271,1.0,6.0,57,0.00,,,0.00,58.000000,,2013-06-24 03:22:00,
2013-06-23 22:02:00,61.0,51.0,-100.00,SW,224,2.0,3.0,69,0.00,,,0.00,6.000000,,2013-06-24 04:02:00,
2013-06-23 22:12:00,61.0,51.0,-100.00,SW,224,2.0,3.0,69,0.00,,,0.00,6.000000,,2013-06-24 04:12:00,
2013-06-23 22:22:00,61.0,51.0,-100.00,SW,224,2.0,3.0,69,0.00,,,0.00,6.000000,,2013-06-24 04:22:00,
2013-06-23 22:53:00,60.0,49.0,-100.00,SSW,212,2.0,4.0,68,0.00,,,0.00,0.000000,,2013-06-24 04:53:00,
2013-06-23 23:02:00,60.0,49.0,-100.00,SSW,212,2.0,4.0,68,0.00,,,0.00,0.000000,,2013-06-24 05:02:00,
2013-06-23 23:12:00,60.0,49.0,-100.00,SSW,212,2.0,4.0,68,0.00,,,0.00,0.000000,,2013-06-24 05:12:00,
2013-06-23 23:22:00,60.0,49.0,-100.00,SSW,212,2.0,4.0,68,0.00,,,0.00,0.000000,,2013-06-24 05:22:00,
2013-06-23 23:56:00,56.0,50.0,-100.00,SSW,213,3.0,5.0,79,0.00,,,0.00,0.000000,,2013-06-24 05:56:00,